createdAt,value
2022-11-20T00:01:17.934Z,95556.75
2022-11-20T00:03:45.197Z,95561.66
2022-11-20T00:06:14.725Z,95559.50
2022-11-20T00:08:41.658Z,95566.44
2022-11-20T00:11:16.008Z,95562.69
2022-11-20T00:13:44.309Z,95559.94
2022-11-20T00:16:12.161Z,95566.94
2022-11-20T00:18:38.817Z,95563.97
2022-11-20T00:21:11.928Z,95570.41
2022-11-20T00:23:38.577Z,95562.53
2022-11-20T00:26:06.841Z,95572.13
2022-11-20T00:28:33.678Z,95571.63
2022-11-20T00:31:11.599Z,95574.59
2022-11-20T00:33:38.288Z,95576.75
2022-11-20T00:36:07.649Z,95573.50
2022-11-20T00:38:35.263Z,95577.78
2022-11-20T00:41:03.997Z,95571.06
2022-11-20T00:43:31.015Z,95575.25
2022-11-20T00:46:02.660Z,95571.47
2022-11-20T00:48:29.488Z,95581.16
2022-11-20T00:50:56.427Z,95580.00
2022-11-20T00:53:23.315Z,95590.72
2022-11-20T00:55:57.556Z,95582.53
2022-11-20T00:58:25.346Z,95591.19
2022-11-20T01:00:52.181Z,95591.69
2022-11-20T01:03:22.843Z,95601.44
2022-11-20T01:05:53.321Z,95609.09
2022-11-20T01:08:19.882Z,95604.19
2022-11-20T01:10:46.454Z,95603.38
2022-11-20T01:13:51.037Z,95603.69
2022-11-20T01:16:23.787Z,95600.75
2022-11-20T01:18:53.057Z,95604.47
2022-11-20T01:21:23.172Z,95604.41
2022-11-20T01:23:50.696Z,95600.59
2022-11-20T01:26:22.287Z,95600.94
2022-11-20T01:28:49.108Z,95599.44
2022-11-20T01:31:24.716Z,95606.50
2022-11-20T01:33:53.422Z,95598.75
2022-11-20T01:36:22.124Z,95612.16
2022-11-20T01:38:49.097Z,95606.03
2022-11-20T01:41:34.658Z,95612.91
2022-11-20T01:44:02.855Z,95609.88
2022-11-20T01:46:29.653Z,95609.38
2022-11-20T01:49:12.029Z,95609.09
2022-11-20T01:52:17.156Z,95604.69
2022-11-20T01:54:50.285Z,95611.16
2022-11-20T01:57:20.678Z,95606.31
2022-11-20T01:59:56.848Z,95604.16
2022-11-20T02:02:23.756Z,95603.44
2022-11-20T02:04:55.335Z,95605.50
2022-11-20T02:07:23.643Z,95610.41
2022-11-20T02:09:53.774Z,95616.38
2022-11-20T02:12:42.867Z,95611.47
2022-11-20T02:15:09.891Z,95626.34
2022-11-20T02:17:36.605Z,95616.09
2022-11-20T02:20:04.068Z,95618.56
2022-11-20T02:22:39.625Z,95622.34
2022-11-20T02:25:08.214Z,95616.66
2022-11-20T02:27:35.241Z,95618.38
2022-11-20T02:30:08.626Z,95617.53
2022-11-20T02:32:36.904Z,95621.47
2022-11-20T02:35:30.584Z,95612.38
2022-11-20T02:37:58.975Z,95611.81
2022-11-20T02:40:26.206Z,95614.34
2022-11-20T02:42:53.727Z,95615.56
2022-11-20T02:45:20.493Z,95612.81
2022-11-20T02:47:47.246Z,95609.09
2022-11-20T02:50:13.989Z,95604.28
2022-11-20T02:52:40.566Z,95609.22
2022-11-20T02:55:07.716Z,95613.44
2022-11-20T02:57:34.417Z,95613.31
2022-11-20T03:00:01.157Z,95609.56
2022-11-20T03:02:31.323Z,95606.28
2022-11-20T03:04:58.207Z,95610.03
2022-11-20T03:07:25.104Z,95608.31
2022-11-20T03:09:51.781Z,95611.19
2022-11-20T03:12:18.350Z,95626.28
2022-11-20T03:14:48.880Z,95620.38
2022-11-20T03:17:18.274Z,95617.28
2022-11-20T03:19:44.857Z,95617.63
2022-11-20T03:22:11.439Z,95618.41
2022-11-20T03:24:38.021Z,95623.97
2022-11-20T03:27:04.589Z,95624.59
2022-11-20T03:29:31.229Z,95624.09
2022-11-20T03:31:57.784Z,95629.44
2022-11-20T03:34:24.485Z,95629.75
2022-11-20T03:36:51.070Z,95628.81
2022-11-20T03:39:17.689Z,95631.81
2022-11-20T03:41:44.473Z,95630.56
2022-11-20T03:44:12.458Z,95636.03
2022-11-20T03:46:39.685Z,95640.47
2022-11-20T03:49:06.470Z,95641.38
2022-11-20T03:51:35.853Z,95630.16
2022-11-20T03:54:05.589Z,95636.53
2022-11-20T03:56:34.211Z,95636.19
2022-11-20T03:59:01.148Z,95637.47
2022-11-20T04:01:32.678Z,95630.25
2022-11-20T04:03:59.667Z,95633.44
2022-11-20T04:06:29.142Z,95631.97
2022-11-20T04:08:59.322Z,95643.78
2022-11-20T04:11:27.919Z,95639.94
2022-11-20T04:13:59.852Z,95641.31
2022-11-20T04:16:27.729Z,95633.94
2022-11-20T04:18:55.979Z,95635.22
2022-11-20T04:21:23.800Z,95654.59
2022-11-20T04:23:51.568Z,95651.59
2022-11-20T04:26:18.414Z,95648.72
2022-11-20T04:28:45.004Z,95662.56
2022-11-20T04:31:13.868Z,95654.09
2022-11-20T04:33:40.868Z,95650.97
2022-11-20T04:36:13.365Z,95648.13
2022-11-20T04:38:40.211Z,95646.78
2022-11-20T04:41:09.049Z,95644.06
2022-11-20T04:43:35.654Z,95654.75
2022-11-20T04:46:02.606Z,95645.13
2022-11-20T04:48:30.528Z,95650.06
2022-11-20T04:50:57.673Z,95649.75
2022-11-20T04:53:25.047Z,95658.03
2022-11-20T04:55:51.640Z,95648.78
2022-11-20T04:58:18.236Z,95646.59
2022-11-20T05:00:44.891Z,95651.16
2022-11-20T05:03:11.559Z,95651.81
2022-11-20T05:05:38.120Z,95648.19
2022-11-20T05:08:05.027Z,95651.31
2022-11-20T05:10:31.588Z,95649.97
2022-11-20T05:12:58.584Z,95647.81
2022-11-20T05:15:25.445Z,95654.31
2022-11-20T05:17:53.689Z,95659.16
2022-11-20T05:20:20.865Z,95660.50
2022-11-20T05:22:47.545Z,95653.88
2022-11-20T05:25:14.233Z,95656.25
2022-11-20T05:27:40.818Z,95656.50
2022-11-20T05:30:08.421Z,95659.16
2022-11-20T05:32:35.013Z,95662.59
2022-11-20T05:35:01.618Z,95661.22
2022-11-20T05:37:28.209Z,95667.50
2022-11-20T05:39:54.795Z,95661.81
2022-11-20T05:42:33.341Z,95657.94
2022-11-20T05:45:01.473Z,95663.28
2022-11-20T05:47:31.882Z,95674.50
2022-11-20T05:49:58.486Z,95667.84
2022-11-20T05:52:25.097Z,95672.94
2022-11-20T05:54:51.682Z,95678.69
2022-11-20T05:57:18.252Z,95669.00
2022-11-20T05:59:44.903Z,95674.25
2022-11-20T06:02:11.804Z,95663.53
2022-11-20T06:04:38.679Z,95664.44
2022-11-20T06:07:08.252Z,95665.78
2022-11-20T06:09:35.091Z,95673.69
2022-11-20T06:12:01.681Z,95675.91
2022-11-20T06:14:28.414Z,95668.69
2022-11-20T06:16:55.029Z,95670.91
2022-11-20T06:19:21.725Z,95672.53
2022-11-20T06:21:50.371Z,95682.94
2022-11-20T06:24:17.962Z,95682.78
2022-11-20T06:26:45.307Z,95684.53
2022-11-20T06:29:11.966Z,95685.50
2022-11-20T06:31:38.878Z,95676.09
2022-11-20T06:34:07.226Z,95678.53
2022-11-20T06:36:34.581Z,95673.34
2022-11-20T06:39:01.562Z,95684.44
2022-11-20T06:41:29.036Z,95685.03
2022-11-20T06:43:55.838Z,95688.66
2022-11-20T06:46:23.217Z,95684.72
2022-11-20T06:48:50.860Z,95682.53
2022-11-20T06:51:17.978Z,95685.09
2022-11-20T06:53:44.651Z,95688.38
2022-11-20T06:56:11.281Z,95679.88
2022-11-20T06:58:38.125Z,95691.88
2022-11-20T07:01:11.088Z,95695.47
2022-11-20T07:03:38.598Z,95692.00
2022-11-20T07:06:06.169Z,95696.75
2022-11-20T07:08:33.645Z,95702.16
2022-11-20T07:11:05.819Z,95702.13
2022-11-20T07:13:33.541Z,95698.41
2022-11-20T07:16:01.916Z,95700.78
2022-11-20T07:18:28.524Z,95701.31
2022-11-20T07:20:55.308Z,95712.50
2022-11-20T07:23:21.902Z,95710.66
2022-11-20T07:25:48.511Z,95714.38
2022-11-20T07:28:15.121Z,95710.84
2022-11-20T07:30:41.739Z,95713.22
2022-11-20T07:33:08.297Z,95711.31
2022-11-20T07:35:34.933Z,95710.59
2022-11-20T07:38:01.509Z,95719.94
2022-11-20T07:40:28.975Z,95717.22
2022-11-20T07:42:57.115Z,95723.44
2022-11-20T07:45:25.372Z,95722.91
2022-11-20T07:47:52.524Z,95728.25
2022-11-20T07:50:20.358Z,95719.97
2022-11-20T07:52:46.990Z,95724.81
2022-11-20T07:55:13.998Z,95721.59
2022-11-20T07:57:41.091Z,95730.63
2022-11-20T08:00:10.423Z,95727.09
2022-11-20T08:02:41.619Z,95729.78
2022-11-20T08:05:09.861Z,95724.59
2022-11-20T08:07:40.638Z,95727.50
2022-11-20T08:10:08.961Z,95731.69
2022-11-20T08:12:54.241Z,95729.19
2022-11-20T08:15:20.961Z,95730.78
2022-11-20T08:18:08.218Z,95728.22
2022-11-20T08:20:35.387Z,95730.78
2022-11-20T08:23:03.755Z,95727.28
2022-11-20T08:25:31.057Z,95736.41
2022-11-20T08:28:11.535Z,95742.56
2022-11-20T08:30:42.421Z,95740.09
2022-11-20T08:33:10.192Z,95742.19
2022-11-20T08:35:38.731Z,95744.41
2022-11-20T08:38:06.553Z,95736.41
2022-11-20T08:40:33.893Z,95741.97
2022-11-20T08:43:00.508Z,95747.78
2022-11-20T08:45:31.019Z,95747.56
2022-11-20T08:48:04.348Z,95741.09
2022-11-20T08:50:33.369Z,95745.84
2022-11-20T08:53:09.069Z,95741.28
2022-11-20T08:55:36.827Z,95744.41
2022-11-20T08:58:10.134Z,95740.22
2022-11-20T09:00:36.673Z,95740.16
2022-11-20T09:03:03.357Z,95742.72
2022-11-20T09:05:30.307Z,95742.75
2022-11-20T09:08:00.699Z,95745.97
2022-11-20T09:10:28.463Z,95744.31
2022-11-20T09:12:58.725Z,95739.34
2022-11-20T09:15:26.329Z,95737.31
2022-11-20T09:17:56.985Z,95737.69
2022-11-20T09:20:23.865Z,95735.38
2022-11-20T09:22:50.468Z,95737.50
2022-11-20T09:25:17.340Z,95736.41
2022-11-20T09:27:45.180Z,95731.59
2022-11-20T09:30:12.452Z,95731.59
2022-11-20T09:32:43.038Z,95729.28
2022-11-20T09:35:10.452Z,95718.19
2022-11-20T09:37:37.047Z,95723.97
2022-11-20T09:40:03.910Z,95710.31
2022-11-20T09:43:08.595Z,95709.97
2022-11-20T09:46:10.812Z,95700.19
2022-11-20T09:48:43.693Z,95713.75
2022-11-20T09:51:29.131Z,95712.16
2022-11-20T09:54:19.109Z,95701.84
2022-11-20T09:56:57.642Z,95715.81
2022-11-20T09:59:43.035Z,95696.59
2022-11-20T10:02:28.737Z,95690.63
2022-11-20T10:05:04.389Z,95702.13
2022-11-20T10:07:51.177Z,95701.69
2022-11-20T10:10:27.248Z,95697.97
2022-11-20T10:13:12.167Z,95700.75
2022-11-20T10:16:13.874Z,95705.00
2022-11-20T10:18:40.568Z,95699.31
2022-11-20T10:21:18.862Z,95701.69
2022-11-20T10:23:56.211Z,95692.16
2022-11-20T10:26:49.272Z,95690.94
2022-11-20T10:29:19.689Z,95677.63
2022-11-20T10:32:02.617Z,95671.44
2022-11-20T10:34:39.433Z,95670.13
2022-11-20T10:37:24.476Z,95667.75
2022-11-20T10:40:16.153Z,95661.38
2022-11-20T10:42:48.274Z,95661.19
2022-11-20T10:45:27.157Z,95659.03
2022-11-20T10:48:16.205Z,95657.03
2022-11-20T10:50:56.125Z,95650.31
2022-11-20T10:53:34.990Z,95646.13
2022-11-20T10:56:16.255Z,95642.66
2022-11-20T10:58:57.841Z,95633.72
2022-11-20T11:01:24.753Z,95631.69
2022-11-20T11:03:56.719Z,95633.09
2022-11-20T11:06:29.097Z,95637.38
2022-11-20T11:08:59.765Z,95638.53
2022-11-20T11:11:32.978Z,95624.22
2022-11-20T11:14:12.859Z,95630.97
2022-11-20T11:16:58.765Z,95623.69
2022-11-20T11:19:25.920Z,95623.38
2022-11-20T11:21:57.728Z,95636.94
2022-11-20T11:24:44.967Z,95626.19
2022-11-20T11:27:18.978Z,95619.63
2022-11-20T11:29:46.829Z,95616.81
2022-11-20T11:32:14.670Z,95618.50
2022-11-20T11:34:41.703Z,95614.25
2022-11-20T11:37:19.441Z,95609.50
2022-11-20T11:39:55.164Z,95608.25
2022-11-20T11:42:26.060Z,95614.66
2022-11-20T11:45:08.451Z,95614.16
2022-11-20T11:47:44.694Z,95614.03
2022-11-20T11:50:11.293Z,95606.28
2022-11-20T11:52:49.934Z,95612.56
2022-11-20T11:55:27.331Z,95606.28
2022-11-20T11:58:03.009Z,95621.44
2022-11-20T12:00:29.794Z,95608.72
2022-11-20T12:03:17.762Z,95605.59
2022-11-20T12:05:48.203Z,95599.88
2022-11-20T12:08:38.125Z,95598.78
2022-11-20T12:11:13.181Z,95591.59
2022-11-20T12:13:56.999Z,95589.00
2022-11-20T12:16:24.021Z,95587.34
2022-11-20T12:18:52.732Z,95576.13
2022-11-20T12:21:34.230Z,95590.84
2022-11-20T12:24:36.240Z,95587.81
2022-11-20T12:27:14.796Z,95590.78
2022-11-20T12:29:47.512Z,95586.56
2022-11-20T12:32:17.207Z,95589.13
2022-11-20T12:35:11.483Z,95587.34
2022-11-20T12:37:46.214Z,95575.78
2022-11-20T12:40:32.604Z,95581.84
2022-11-20T12:43:26.779Z,95583.13
2022-11-20T12:46:08.232Z,95583.72
2022-11-20T12:48:46.433Z,95587.94
2022-11-20T12:51:33.677Z,95582.19
2022-11-20T12:54:38.329Z,95583.97
2022-11-20T12:57:16.338Z,95576.22
2022-11-20T12:59:56.277Z,95580.50
2022-11-20T13:02:36.810Z,95576.16
2022-11-20T13:05:32.527Z,95574.56
2022-11-20T13:07:59.606Z,95568.69
2022-11-20T13:10:44.957Z,95570.84
2022-11-20T13:13:42.342Z,95570.63
2022-11-20T13:16:17.987Z,95576.22
2022-11-20T13:18:46.260Z,95563.63
2022-11-20T13:21:22.004Z,95553.41
2022-11-20T13:23:48.792Z,95559.66
2022-11-20T13:26:22.055Z,95556.19
2022-11-20T13:28:49.431Z,95550.13
2022-11-20T13:31:46.950Z,95545.97
2022-11-20T13:34:25.581Z,95554.72
2022-11-20T13:36:56.677Z,95559.56
2022-11-20T13:39:28.053Z,95546.13
2022-11-20T13:41:59.822Z,95549.69
2022-11-20T13:44:44.876Z,95547.91
2022-11-20T13:47:26.027Z,95552.50
2022-11-20T13:49:55.524Z,95548.00
2022-11-20T13:52:52.896Z,95558.09
2022-11-20T13:55:51.276Z,95546.00
2022-11-20T13:58:20.822Z,95552.94
2022-11-20T14:00:56.576Z,95551.56
2022-11-20T14:03:44.053Z,95547.59
2022-11-20T14:06:20.714Z,95548.78
2022-11-20T14:08:49.146Z,95545.00
2022-11-20T14:11:21.824Z,95549.19
2022-11-20T14:14:06.153Z,95543.84
2022-11-20T14:16:36.274Z,95543.44
2022-11-20T14:19:26.494Z,95539.84
2022-11-20T14:21:55.563Z,95548.00
2022-11-20T14:24:26.191Z,95547.69
2022-11-20T14:26:53.698Z,95540.94
2022-11-20T14:29:27.681Z,95536.88
2022-11-20T14:31:56.720Z,95538.06
2022-11-20T14:34:26.311Z,95533.47
2022-11-20T14:36:57.336Z,95535.19
2022-11-20T14:39:36.233Z,95536.69
2022-11-20T14:42:04.025Z,95534.91
2022-11-20T14:44:34.576Z,95536.69
2022-11-20T14:47:02.940Z,95530.16
2022-11-20T14:49:32.488Z,95535.88
2022-11-20T14:52:04.081Z,95541.34
2022-11-20T14:54:31.728Z,95543.25
2022-11-20T14:57:03.663Z,95540.94
2022-11-20T14:59:32.772Z,95547.69
2022-11-20T15:02:02.964Z,95554.53
2022-11-20T15:04:29.672Z,95551.13
2022-11-20T15:06:59.435Z,95550.41
2022-11-20T15:09:26.372Z,95548.34
2022-11-20T15:12:04.257Z,95553.34
2022-11-20T15:14:33.565Z,95555.31
2022-11-20T15:17:00.567Z,95561.69
2022-11-20T15:19:28.002Z,95547.59
2022-11-20T15:21:54.643Z,95553.53
2022-11-20T15:24:21.799Z,95551.75
2022-11-20T15:26:48.877Z,95554.53
2022-11-20T15:29:19.727Z,95564.25
2022-11-20T15:31:46.582Z,95565.63
2022-11-20T15:34:14.565Z,95567.38
2022-11-20T15:36:41.953Z,95570.13
2022-11-20T15:39:09.878Z,95562.28
2022-11-20T15:41:36.987Z,95569.78
2022-11-20T15:44:04.729Z,95573.56
2022-11-20T15:46:39.521Z,95575.31
2022-11-20T15:49:07.730Z,95584.31
2022-11-20T15:51:39.567Z,95581.56
2022-11-20T15:54:18.774Z,95583.31
2022-11-20T15:56:45.392Z,95592.47
2022-11-20T15:59:11.975Z,95591.59
2022-11-20T16:01:38.619Z,95591.56
2022-11-20T16:04:10.508Z,95598.78
2022-11-20T16:06:37.064Z,95601.09
2022-11-20T16:09:03.722Z,95609.75
2022-11-20T16:11:30.579Z,95613.16
2022-11-20T16:14:15.586Z,95616.59
2022-11-20T16:16:44.100Z,95617.50
2022-11-20T16:19:12.994Z,95619.47
2022-11-20T16:21:42.345Z,95616.22
2022-11-20T16:24:13.576Z,95622.44
2022-11-20T16:26:40.862Z,95627.91
2022-11-20T16:29:07.815Z,95611.91
2022-11-20T16:31:34.869Z,95610.78
2022-11-20T16:34:08.569Z,95612.59
2022-11-20T16:36:40.782Z,95618.38
2022-11-20T16:39:07.358Z,95611.47
2022-11-20T16:41:34.953Z,95615.13
2022-11-20T16:44:03.277Z,95607.66
2022-11-20T16:46:31.792Z,95610.91
2022-11-20T16:49:04.257Z,95612.25
2022-11-20T16:51:34.644Z,95608.44
2022-11-20T16:54:06.237Z,95601.25
2022-11-20T16:56:33.285Z,95605.31
2022-11-20T16:59:00.975Z,95600.69
2022-11-20T17:01:29.088Z,95603.47
2022-11-20T17:04:06.269Z,95601.53
2022-11-20T17:06:39.034Z,95594.81
2022-11-20T17:09:05.823Z,95602.81
2022-11-20T17:11:33.597Z,95601.66
2022-11-20T17:14:00.772Z,95603.75
2022-11-20T17:16:27.561Z,95603.06
2022-11-20T17:19:02.903Z,95607.47
2022-11-20T17:21:31.259Z,95600.22
2022-11-20T17:24:02.675Z,95604.28
2022-11-20T17:26:29.480Z,95605.28
2022-11-20T17:29:00.411Z,95599.22
2022-11-20T17:31:28.467Z,95601.84
2022-11-20T17:33:55.257Z,95600.72
2022-11-20T17:36:22.543Z,95595.38
2022-11-20T17:38:49.241Z,95596.88
2022-11-20T17:41:20.795Z,95590.75
2022-11-20T17:43:47.382Z,95586.84
2022-11-20T17:46:16.678Z,95581.97
2022-11-20T17:48:44.769Z,95587.06
2022-11-20T17:51:13.782Z,95586.03
2022-11-20T17:53:42.602Z,95587.72
2022-11-20T17:56:28.338Z,95590.72
2022-11-20T17:58:55.377Z,95585.22
2022-11-20T18:01:22.342Z,95578.59
2022-11-20T18:03:49.221Z,95584.19
2022-11-20T18:06:18.800Z,95586.59
2022-11-20T18:08:45.948Z,95586.47
2022-11-20T18:11:29.725Z,95586.22
2022-11-20T18:14:16.782Z,95587.66
2022-11-20T18:16:49.147Z,95586.13
2022-11-20T18:19:18.728Z,95589.69
2022-11-20T18:21:45.353Z,95583.47
2022-11-20T18:24:11.972Z,95579.41
2022-11-20T18:26:43.852Z,95582.88
2022-11-20T18:29:11.666Z,95572.94
2022-11-20T18:31:38.309Z,95571.41
2022-11-20T18:34:06.350Z,95568.28
2022-11-20T18:36:33.466Z,95566.84
2022-11-20T18:39:01.710Z,95571.41
2022-11-20T18:41:48.577Z,95576.25
2022-11-20T18:44:37.765Z,95569.75
2022-11-20T18:47:13.731Z,95563.75
2022-11-20T18:49:51.170Z,95573.00
2022-11-20T18:52:23.788Z,95572.28
2022-11-20T18:54:50.907Z,95567.59
2022-11-20T18:57:23.102Z,95564.63
2022-11-20T18:59:49.992Z,95557.75
2022-11-20T19:02:19.230Z,95561.03
2022-11-20T19:04:46.513Z,95556.06
2022-11-20T19:07:14.427Z,95556.44
2022-11-20T19:09:43.074Z,95556.81
2022-11-20T19:12:11.956Z,95552.13
2022-11-20T19:14:38.622Z,95557.56
2022-11-20T19:17:06.986Z,95551.94
2022-11-20T19:19:36.738Z,95553.06
2022-11-20T19:22:04.199Z,95551.56
2022-11-20T19:24:31.259Z,95546.03
2022-11-20T19:26:58.241Z,95542.50
2022-11-20T19:29:25.939Z,95546.16
2022-11-20T19:31:53.617Z,95536.72
2022-11-20T19:34:20.262Z,95537.41
2022-11-20T19:36:47.005Z,95530.94
2022-11-20T19:39:14.030Z,95537.03
2022-11-20T19:41:41.169Z,95527.81
2022-11-20T19:44:14.088Z,95526.09
2022-11-20T19:46:41.449Z,95523.50
2022-11-20T19:49:10.381Z,95526.19
2022-11-20T19:51:39.076Z,95526.63
2022-11-20T19:54:06.517Z,95515.38
2022-11-20T19:56:33.836Z,95522.66
2022-11-20T19:59:00.965Z,95519.97
2022-11-20T20:01:30.081Z,95519.53
2022-11-20T20:04:02.485Z,95511.03
2022-11-20T20:06:30.093Z,95518.84
2022-11-20T20:09:02.210Z,95519.53
2022-11-20T20:11:30.969Z,95504.09
2022-11-20T20:13:59.089Z,95510.38
2022-11-20T20:16:26.629Z,95510.06
2022-11-20T20:19:01.844Z,95503.75
2022-11-20T20:21:30.548Z,95496.47
2022-11-20T20:23:58.480Z,95506.78
2022-11-20T20:26:26.961Z,95501.72
2022-11-20T20:28:53.542Z,95496.94
2022-11-20T20:31:28.029Z,95492.63
2022-11-20T20:33:55.081Z,95483.63
2022-11-20T20:36:23.434Z,95489.00
2022-11-20T20:38:54.245Z,95482.75
2022-11-20T20:41:22.413Z,95474.91
2022-11-20T20:44:07.580Z,95477.00
2022-11-20T20:46:34.488Z,95473.84
2022-11-20T20:49:01.222Z,95478.78
2022-11-20T20:51:27.932Z,95475.53
2022-11-20T20:53:54.593Z,95473.06
2022-11-20T20:56:21.393Z,95474.41
2022-11-20T20:58:47.992Z,95478.59
2022-11-20T21:01:17.297Z,95478.56
2022-11-20T21:03:44.316Z,95474.84
2022-11-20T21:06:11.844Z,95477.00
2022-11-20T21:08:40.793Z,95470.75
2022-11-20T21:11:10.865Z,95475.22
2022-11-20T21:13:38.737Z,95463.66
2022-11-20T21:16:05.759Z,95464.56
2022-11-20T21:18:33.172Z,95465.78
2022-11-20T21:21:18.735Z,95458.50
2022-11-20T21:23:47.655Z,95459.34
2022-11-20T21:26:15.981Z,95451.41
2022-11-20T21:28:42.808Z,95445.53
2022-11-20T21:31:16.965Z,95447.41
2022-11-20T21:33:45.569Z,95443.69
2022-11-20T21:36:14.609Z,95446.38
2022-11-20T21:38:41.564Z,95438.22
2022-11-20T21:41:09.670Z,95435.38
2022-11-20T21:43:36.866Z,95425.22
2022-11-20T21:46:30.857Z,95428.63
2022-11-20T21:48:57.546Z,95429.66
2022-11-20T21:51:27.216Z,95422.78
2022-11-20T21:53:55.337Z,95420.69
2022-11-20T21:56:24.666Z,95420.69
2022-11-20T21:58:54.795Z,95428.66
2022-11-20T22:01:23.089Z,95428.31
2022-11-20T22:03:56.822Z,95424.91
2022-11-20T22:06:25.689Z,95418.41
2022-11-20T22:08:52.328Z,95421.69
2022-11-20T22:11:21.215Z,95422.19
2022-11-20T22:14:07.416Z,95416.38
2022-11-20T22:16:35.471Z,95416.69
2022-11-20T22:19:02.290Z,95414.31
2022-11-20T22:21:30.417Z,95424.00
2022-11-20T22:23:57.912Z,95414.41
2022-11-20T22:26:27.402Z,95415.19
2022-11-20T22:28:57.281Z,95412.84
2022-11-20T22:31:27.220Z,95426.34
2022-11-20T22:33:54.090Z,95434.69
2022-11-20T22:36:26.197Z,95431.53
2022-11-20T22:38:52.762Z,95437.88
2022-11-20T22:41:21.909Z,95429.06
2022-11-20T22:43:48.560Z,95420.56
2022-11-20T22:46:17.570Z,95426.97
2022-11-20T22:48:53.134Z,95421.13
2022-11-20T22:51:24.769Z,95413.38
2022-11-20T22:53:51.673Z,95407.78
2022-11-20T22:56:18.906Z,95407.00
2022-11-20T22:58:47.805Z,95418.91
2022-11-20T23:01:35.188Z,95420.53
2022-11-20T23:04:04.857Z,95414.63
2022-11-20T23:06:34.394Z,95417.84
2022-11-20T23:09:02.162Z,95423.25
2022-11-20T23:11:30.978Z,95415.81
2022-11-20T23:14:00.541Z,95422.09
2022-11-20T23:16:29.940Z,95414.63
2022-11-20T23:18:59.445Z,95409.03
2022-11-20T23:21:26.864Z,95408.72
2022-11-20T23:23:55.710Z,95410.28
2022-11-20T23:26:24.578Z,95406.00
2022-11-20T23:28:53.515Z,95411.03
2022-11-20T23:31:20.613Z,95417.19
2022-11-20T23:33:47.258Z,95409.97
2022-11-20T23:36:14.832Z,95424.00
2022-11-20T23:38:41.554Z,95418.41
2022-11-20T23:41:08.189Z,95408.81
2022-11-20T23:43:35.112Z,95408.09
2022-11-20T23:46:03.475Z,95414.59
2022-11-20T23:48:32.652Z,95417.75
2022-11-20T23:51:00.010Z,95416.66
2022-11-20T23:53:27.280Z,95419.94
2022-11-20T23:55:55.891Z,95407.09
2022-11-20T23:58:24.634Z,95420.41
